Mount Berry, GA (30149)

3:33 PM EDT on August 30, 2015 (GMT -0400)
Fair Oaks/West Rome | | Change Station
CLOSE
Current Station
Personal Weather Station
Location: Rome, GA
Elevation: 794 ft
Nearby Weather Stations

Elev 794 ft 34.26 °N, 85.25 °W | Updated 2 seconds ago

Partly Cloudy
Partly Cloudy
77.5 °F
Feels Like 79 °F
N
2.2
Wind Variable Wind from SE
Gusts 4.5 mph

Today
High -- | Low -- °F
--% Chance of Precip.
Yesterday
High -- | Low -- °F
Precip. -- in
7:12 AM 8:09 PM
Full, 98% visible
Pressure 30.08 in
Visibility 10.0 miles
Clouds Scattered Clouds 6000 ft
Scattered Clouds 8000 ft
Heat Index 79 °F
Dew Point 67 °F
Humidity 69%
Rainfall 0.07 in
Snow Depth Not available.
UV 8 out of 12
Pollen 6.10 out of 12
Air Quality Not available.
Flu Activity Not available.
METAR KRMG 301853Z AUTO 03009KT 10SM SCT060 SCT080 25/18 A3011 RMK AO2 SLP186 T02500183
Pressure 30.08 in
Visibility 10.0 miles
Clouds Scattered Clouds 6000 ft
Scattered Clouds 8000 ft
Heat Index 79 °F
Dew Point 67 °F
Humidity 69%
Rainfall 0.07 in
Snow Depth Not available.
UV 8 out of 12
Pollen 6.10 out of 12
Air Quality Not available.
Flu Activity Not available.
METAR KRMG 301853Z AUTO 03009KT 10SM SCT060 SCT080 25/18 A3011 RMK AO2 SLP186 T02500183

10-Day Weather Forecast

×

Almanac

Astronomy

Aug. 30, 2015 Rise Set
Actual Time
Civil Twilight
Nautical Twilight
Astronomical Twilight
Moon
Length of Visible Light
Length of Day
Tomorrow will be .
, % of the Moon is Illuminated

Today's Extremes

State Highs State Lows

Community

WunderPhotos

Upload Photos

1,851,040 photos uploaded!

WunderBlogs® & News

Nearby

Air Quality

  Air Quality AQ Index Pollutant
Not available.

Snow Depth

Station Depth Elevation

Earthquake Activity

City Distance Mag. Time & Date
Minimum magnitude displayed is 2.5.

Coastal Water Temperatures

Place Temperature

Stations

Nearby Weather Stations

Station Location Temp. Windchill Dew Point Humidity Wind Precip. Elev Updated Type